Time;durP1;ratioP1;P1;durP2;ratioP2;P2;SDS_P1;SDS_P2;PMS_P1;PMS_P2;Temp;Humidity;BMP_temperature;BMP_pressure;BME280_temperature;BME280_humidity;BME280_pressure;Samples;Min_cycle;Max_cycle;Signal;HPM_P1;HPM_P2
2022/02/01 00:03:35;;;;;;;14.32;4.82;;;;;;;;;;4992694;28;20098;-70
2022/02/01 00:16:44;;;;;;;17.10;3.92;;;;;;;;;;4984877;28;20577;-70
2022/02/01 00:33:18;;;;;;;11.70;3.80;;;;;;;;;;4989538;28;20081;-72
2022/02/01 00:35:59;;;;;;;20.55;5.00;;;;;;;;;;4988787;28;20293;-71
2022/02/01 00:41:31;;;;;;;8.82;4.18;;;;;;;;;;4979639;28;20381;-70
2022/02/01 00:43:57;;;;;;;9.35;4.25;;;;;;;;;;4989912;28;20093;-69
2022/02/01 00:46:24;;;;;;;17.58;3.92;;;;;;;;;;5006799;28;20068;-70
2022/02/01 00:48:50;;;;;;;11.38;3.72;;;;;;;;;;4989047;28;20033;-71
2022/02/01 00:51:16;;;;;;;11.75;3.72;;;;;;;;;;4983102;28;20030;-71
2022/02/01 00:53:43;;;;;;;14.50;4.20;;;;;;;;;;4992461;28;20080;-70
2022/02/01 00:56:09;;;;;;;15.10;4.32;;;;;;;;;;4987474;28;20041;-71
2022/02/01 00:58:36;;;;;;;22.05;4.05;;;;;;;;;;5007406;28;20030;-70
2022/02/01 01:01:02;;;;;;;13.82;5.13;;;;;;;;;;4985303;28;20045;-71
2022/02/01 01:03:28;;;;;;;13.18;3.70;;;;;;;;;;4992199;28;20029;-70
2022/02/01 01:05:54;;;;;;;17.55;3.97;;;;;;;;;;4991876;28;20027;-71
2022/02/01 01:08:20;;;;;;;15.05;4.35;;;;;;;;;;4984056;28;20169;-71
2022/02/01 01:10:46;;;;;;;21.15;5.93;;;;;;;;;;4983381;28;20050;-71
2022/02/01 01:13:53;;;;;;;16.45;4.32;;;;;;;;;;4986588;28;20034;-71
2022/02/01 01:53:54;;;;;;;12.52;3.95;;;;;;;;;;4983911;28;20049;-71
2022/02/01 01:56:20;;;;;;;14.43;3.65;;;;;;;;;;4978696;28;20444;-71
2022/02/01 01:58:46;;;;;;;21.50;4.30;;;;;;;;;;4995956;28;20034;-70
2022/02/01 02:01:14;;;;;;;11.75;4.22;;;;;;;;;;4981939;28;20031;-71
2022/02/01 02:03:44;;;;;;;18.75;4.07;;;;;;;;;;4990111;28;20026;-70
2022/02/01 02:06:11;;;;;;;10.68;3.47;;;;;;;;;;4987913;28;20029;-69
2022/02/01 02:08:38;;;;;;;17.20;4.13;;;;;;;;;;4981267;28;20031;-69
2022/02/01 02:11:08;;;;;;;14.85;4.10;;;;;;;;;;4991168;28;20039;-71
2022/02/01 02:16:23;;;;;;;18.65;4.30;;;;;;;;;;4995664;28;20108;-70
2022/02/01 02:18:49;;;;;;;8.88;3.55;;;;;;;;;;4992687;28;20514;-70
2022/02/01 02:21:21;;;;;;;16.50;4.47;;;;;;;;;;4978479;28;20481;-69
2022/02/01 02:23:47;;;;;;;17.58;4.72;;;;;;;;;;4992755;28;20133;-69
2022/02/01 02:26:14;;;;;;;13.93;4.00;;;;;;;;;;4992403;28;20884;-69
2022/02/01 02:28:40;;;;;;;13.20;4.72;;;;;;;;;;4981142;28;20023;-70
2022/02/01 02:31:07;;;;;;;17.10;5.25;;;;;;;;;;4988924;28;20041;-70
2022/02/01 02:33:33;;;;;;;13.35;4.63;;;;;;;;;;4983096;28;20025;-70
2022/02/01 02:36:06;;;;;;;14.30;5.47;;;;;;;;;;4986042;28;20062;-70
2022/02/01 02:46:23;;;;;;;14.00;5.27;;;;;;;;;;4986506;28;20053;-70
2022/02/01 02:48:49;;;;;;;16.10;5.28;;;;;;;;;;4993514;28;20503;-70
2022/02/01 02:51:15;;;;;;;16.90;4.53;;;;;;;;;;4989184;28;20035;-71
2022/02/01 02:53:41;;;;;;;7.93;4.45;;;;;;;;;;4996338;28;20044;-71
2022/02/01 02:56:08;;;;;;;12.48;4.25;;;;;;;;;;4989570;28;20093;-70
2022/02/01 02:58:34;;;;;;;11.45;4.88;;;;;;;;;;4987448;28;20432;-71
2022/02/01 03:01:00;;;;;;;10.88;4.82;;;;;;;;;;4999306;28;20561;-71
2022/02/01 03:03:26;;;;;;;9.57;4.00;;;;;;;;;;4984723;28;20077;-70
2022/02/01 03:05:53;;;;;;;12.07;3.75;;;;;;;;;;4992645;28;20034;-71
2022/02/01 03:08:19;;;;;;;12.93;3.55;;;;;;;;;;4995705;28;20034;-71
2022/02/01 03:10:45;;;;;;;16.58;4.30;;;;;;;;;;4990328;28;20121;-71
2022/02/01 03:13:16;;;;;;;11.00;3.95;;;;;;;;;;4991130;28;20041;-71
2022/02/01 03:15:52;;;;;;;11.15;4.15;;;;;;;;;;4995048;28;20113;-70
2022/02/01 03:21:02;;;;;;;12.88;4.45;;;;;;;;;;4993243;28;20552;-71
2022/02/01 03:23:28;;;;;;;13.38;4.78;;;;;;;;;;4990268;28;20049;-71
2022/02/01 03:25:55;;;;;;;10.82;4.78;;;;;;;;;;4984211;28;20030;-71
2022/02/01 03:28:21;;;;;;;16.75;4.75;;;;;;;;;;4986556;28;20030;-71
2022/02/01 03:30:47;;;;;;;15.35;3.95;;;;;;;;;;4991192;28;20038;-71
2022/02/01 03:33:13;;;;;;;11.57;3.95;;;;;;;;;;4989063;28;20038;-72
2022/02/01 03:35:39;;;;;;;11.77;3.95;;;;;;;;;;4991664;28;20022;-72
2022/02/01 03:38:05;;;;;;;11.52;3.65;;;;;;;;;;4993839;28;20029;-70
2022/02/01 03:40:31;;;;;;;9.43;3.80;;;;;;;;;;4987409;28;20113;-71
2022/02/01 03:42:57;;;;;;;11.40;3.58;;;;;;;;;;4996415;28;20033;-72
2022/02/01 03:45:24;;;;;;;8.18;3.25;;;;;;;;;;4991525;28;20040;-71
2022/02/01 03:47:50;;;;;;;9.50;3.50;;;;;;;;;;4990797;28;20032;-70
2022/02/01 03:50:16;;;;;;;8.32;3.72;;;;;;;;;;4984766;28;20448;-70
2022/02/01 03:52:42;;;;;;;12.25;3.45;;;;;;;;;;4992603;28;20018;-71
2022/02/01 03:55:08;;;;;;;9.15;2.97;;;;;;;;;;4990895;28;20401;-71
2022/02/01 03:57:34;;;;;;;7.95;3.28;;;;;;;;;;4995761;28;20026;-71
2022/02/01 04:00:00;;;;;;;10.38;3.45;;;;;;;;;;4996791;28;20029;-70
2022/02/01 04:02:26;;;;;;;5.47;2.97;;;;;;;;;;4995195;28;20116;-70
2022/02/01 04:04:53;;;;;;;7.93;2.70;;;;;;;;;;4985087;28;20084;-70
2022/02/01 04:07:22;;;;;;;7.93;3.28;;;;;;;;;;4987586;28;20052;-71
2022/02/01 04:09:50;;;;;;;6.85;2.88;;;;;;;;;;4986908;28;20042;-70
2022/02/01 04:12:17;;;;;;;6.78;2.90;;;;;;;;;;4990546;28;20769;-70
2022/02/01 04:14:44;;;;;;;8.70;3.88;;;;;;;;;;4990088;28;20117;-71
2022/02/01 04:17:11;;;;;;;6.68;2.95;;;;;;;;;;4985399;28;20023;-71
2022/02/01 04:19:37;;;;;;;7.38;2.83;;;;;;;;;;4995636;28;20085;-71
2022/02/01 04:22:05;;;;;;;8.57;3.00;;;;;;;;;;4995483;28;20149;-70
2022/02/01 04:24:36;;;;;;;10.57;3.30;;;;;;;;;;5005345;28;20716;-71
2022/02/01 04:27:02;;;;;;;6.53;3.28;;;;;;;;;;4996800;28;20041;-70
2022/02/01 04:29:29;;;;;;;7.78;3.13;;;;;;;;;;4993010;28;20367;-71
2022/02/01 04:31:55;;;;;;;8.40;3.38;;;;;;;;;;4992214;28;20027;-69
2022/02/01 04:34:22;;;;;;;9.88;4.55;;;;;;;;;;4994143;28;20164;-71
2022/02/01 04:36:48;;;;;;;9.77;4.13;;;;;;;;;;4988995;28;20033;-70
2022/02/01 04:39:14;;;;;;;9.73;3.70;;;;;;;;;;4995944;28;20610;-70
2022/02/01 04:41:40;;;;;;;11.57;4.13;;;;;;;;;;4991819;28;20038;-69
2022/02/01 04:44:06;;;;;;;10.55;4.20;;;;;;;;;;4992234;28;20026;-70
2022/02/01 04:46:33;;;;;;;11.90;4.28;;;;;;;;;;4992430;28;20040;-70
2022/02/01 04:49:05;;;;;;;8.27;4.13;;;;;;;;;;4986371;28;20026;-71
2022/02/01 04:51:31;;;;;;;9.02;4.20;;;;;;;;;;4994427;28;20026;-70
2022/02/01 04:53:57;;;;;;;12.45;4.32;;;;;;;;;;4993373;28;20041;-70
2022/02/01 04:56:25;;;;;;;9.27;3.90;;;;;;;;;;4998034;28;20054;-70
2022/02/01 04:58:51;;;;;;;9.00;4.38;;;;;;;;;;4997614;28;20555;-70
2022/02/01 05:01:23;;;;;;;14.68;4.85;;;;;;;;;;4986566;28;20037;-69
2022/02/01 05:03:50;;;;;;;8.10;4.53;;;;;;;;;;4993260;28;20109;-70
2022/02/01 05:06:16;;;;;;;9.85;4.38;;;;;;;;;;4993687;28;20026;-70
2022/02/01 05:08:43;;;;;;;15.68;5.13;;;;;;;;;;4985306;28;20521;-70
2022/02/01 05:11:09;;;;;;;17.23;5.00;;;;;;;;;;4985783;28;20077;-70
2022/02/01 05:16:17;;;;;;;14.02;4.45;;;;;;;;;;4982485;28;20041;-71
2022/02/01 05:18:48;;;;;;;9.23;4.22;;;;;;;;;;4996029;28;20030;-71
2022/02/01 05:21:23;;;;;;;10.70;5.25;;;;;;;;;;4995282;28;20027;-70
2022/02/01 05:23:50;;;;;;;9.85;4.25;;;;;;;;;;4992847;28;20041;-70
2022/02/01 05:26:17;;;;;;;11.25;5.00;;;;;;;;;;4983441;28;20039;-71
2022/02/01 05:28:43;;;;;;;10.65;5.18;;;;;;;;;;4987643;28;20089;-71
2022/02/01 05:31:09;;;;;;;8.30;5.07;;;;;;;;;;4992804;28;20441;-71
2022/02/01 05:33:36;;;;;;;9.32;4.28;;;;;;;;;;4989991;28;20040;-71
2022/02/01 05:36:03;;;;;;;11.57;4.63;;;;;;;;;;5000688;28;20089;-70
2022/02/01 05:38:29;;;;;;;12.95;4.38;;;;;;;;;;4994143;28;20503;-71
2022/02/01 05:40:55;;;;;;;12.05;3.90;;;;;;;;;;4991678;28;20121;-70
2022/02/01 05:43:26;;;;;;;12.25;4.03;;;;;;;;;;4984403;28;20081;-70
2022/02/01 05:45:54;;;;;;;8.10;4.32;;;;;;;;;;4982538;28;20030;-70
2022/02/01 05:48:20;;;;;;;9.82;3.50;;;;;;;;;;4995178;28;20502;-71
2022/02/01 05:50:50;;;;;;;6.78;3.83;;;;;;;;;;4990197;28;20033;-71
2022/02/01 05:53:17;;;;;;;6.28;3.20;;;;;;;;;;4978340;28;20038;-70
2022/02/01 05:55:46;;;;;;;9.75;3.88;;;;;;;;;;4980860;28;20366;-71
2022/02/01 05:58:13;;;;;;;11.52;3.70;;;;;;;;;;4986304;28;20034;-70
2022/02/01 06:00:39;;;;;;;11.18;3.75;;;;;;;;;;4997181;28;20030;-70
2022/02/01 06:03:05;;;;;;;7.75;3.38;;;;;;;;;;4996093;28;20057;-69
2022/02/01 06:05:31;;;;;;;3.95;3.05;;;;;;;;;;4990283;28;20023;-70
2022/02/01 06:07:58;;;;;;;6.20;2.88;;;;;;;;;;4988812;28;20110;-71
2022/02/01 06:10:24;;;;;;;5.75;3.50;;;;;;;;;;4984703;28;20074;-70
2022/02/01 06:12:50;;;;;;;7.07;3.33;;;;;;;;;;4985769;28;20522;-70
2022/02/01 06:15:23;;;;;;;5.05;3.20;;;;;;;;;;4994729;28;20034;-69
2022/02/01 06:17:49;;;;;;;6.85;3.75;;;;;;;;;;4995780;28;20018;-71
2022/02/01 06:20:15;;;;;;;9.63;3.30;;;;;;;;;;4993965;28;20058;-71
2022/02/01 06:22:41;;;;;;;5.18;3.00;;;;;;;;;;4994146;28;20031;-69
2022/02/01 06:25:08;;;;;;;6.63;2.97;;;;;;;;;;4986104;28;20151;-70
2022/02/01 06:27:35;;;;;;;3.78;3.08;;;;;;;;;;4990499;28;20025;-69
2022/02/01 06:30:01;;;;;;;4.38;3.05;;;;;;;;;;4989990;28;20041;-70
2022/02/01 06:32:32;;;;;;;6.78;3.58;;;;;;;;;;4983688;28;20548;-70
2022/02/01 06:34:58;;;;;;;6.18;3.33;;;;;;;;;;5001451;28;20717;-70
2022/02/01 06:37:24;;;;;;;6.05;3.72;;;;;;;;;;4982679;28;20117;-70
2022/02/01 06:39:50;;;;;;;8.38;3.42;;;;;;;;;;4991996;28;20025;-70
2022/02/01 06:42:17;;;;;;;5.80;3.78;;;;;;;;;;4985241;28;20026;-70
2022/02/01 06:44:43;;;;;;;4.80;3.22;;;;;;;;;;4993851;28;20029;-72
2022/02/01 06:47:09;;;;;;;5.03;3.40;;;;;;;;;;4993333;28;20026;-70
2022/02/01 06:49:35;;;;;;;5.65;3.13;;;;;;;;;;4994681;28;20128;-70
2022/02/01 06:52:02;;;;;;;6.97;2.90;;;;;;;;;;4982919;28;20034;-70
2022/02/01 06:54:28;;;;;;;5.47;3.42;;;;;;;;;;4996192;28;20030;-70
2022/02/01 06:56:54;;;;;;;6.38;3.63;;;;;;;;;;4985753;28;20038;-70
2022/02/01 06:59:20;;;;;;;6.72;3.70;;;;;;;;;;4995007;28;20031;-69
2022/02/01 07:01:46;;;;;;;5.32;3.70;;;;;;;;;;4988485;28;20037;-71
2022/02/01 07:04:12;;;;;;;6.18;3.83;;;;;;;;;;4983246;28;20069;-69
2022/02/01 07:06:38;;;;;;;5.65;3.85;;;;;;;;;;4992144;28;20026;-71
2022/02/01 07:09:05;;;;;;;6.35;3.55;;;;;;;;;;4986915;28;20382;-71
2022/02/01 07:11:36;;;;;;;7.75;3.53;;;;;;;;;;4988077;28;20034;-70
2022/02/01 07:14:02;;;;;;;6.18;3.55;;;;;;;;;;4974359;28;20050;-69
2022/02/01 07:16:28;;;;;;;7.28;3.35;;;;;;;;;;4985700;28;20015;-70
2022/02/01 07:18:55;;;;;;;3.78;2.90;;;;;;;;;;4980435;28;20023;-70
2022/02/01 07:21:23;;;;;;;4.78;2.65;;;;;;;;;;4982563;28;20348;-71
2022/02/01 07:23:49;;;;;;;5.35;2.70;;;;;;;;;;4983317;28;20022;-71
2022/02/01 07:26:15;;;;;;;3.67;2.28;;;;;;;;;;4988400;28;20029;-70
2022/02/01 07:28:41;;;;;;;3.78;2.00;;;;;;;;;;4989064;28;20022;-71
2022/02/01 07:31:09;;;;;;;2.35;1.77;;;;;;;;;;5004335;28;20390;-70
2022/02/01 07:33:36;;;;;;;3.30;2.03;;;;;;;;;;4990361;28;20023;-71
2022/02/01 07:36:02;;;;;;;3.13;1.58;;;;;;;;;;4990703;28;20037;-70
2022/02/01 07:38:29;;;;;;;3.70;1.73;;;;;;;;;;4993611;28;20022;-70
2022/02/01 07:40:56;;;;;;;3.17;1.52;;;;;;;;;;4988798;28;20077;-70
2022/02/01 07:43:30;;;;;;;3.47;1.70;;;;;;;;;;4992955;28;20081;-69
2022/02/01 07:45:57;;;;;;;4.07;1.80;;;;;;;;;;4997176;28;20141;-69
2022/02/01 07:48:23;;;;;;;2.20;1.80;;;;;;;;;;4989794;28;20033;-70
2022/02/01 07:50:49;;;;;;;1.90;1.70;;;;;;;;;;4983982;28;20054;-71
2022/02/01 07:53:15;;;;;;;3.45;1.75;;;;;;;;;;4983522;28;20070;-70
2022/02/01 07:55:41;;;;;;;4.15;2.05;;;;;;;;;;4976928;28;20042;-70
2022/02/01 07:58:07;;;;;;;1.55;1.45;;;;;;;;;;4982453;28;20030;-71
2022/02/01 08:00:33;;;;;;;2.25;1.60;;;;;;;;;;4978788;28;20026;-67
2022/02/01 08:02:59;;;;;;;2.95;1.70;;;;;;;;;;4983602;28;20389;-69
2022/02/01 08:05:29;;;;;;;3.35;1.95;;;;;;;;;;4984690;28;20026;-70
2022/02/01 08:07:55;;;;;;;2.97;1.83;;;;;;;;;;4981859;28;20485;-71
2022/02/01 08:10:22;;;;;;;2.70;2.05;;;;;;;;;;4995454;28;20622;-69
2022/02/01 08:20:37;;;;;;;2.53;2.00;;;;;;;;;;4982094;28;20023;-71
2022/02/01 08:23:03;;;;;;;2.25;1.90;;;;;;;;;;4986080;28;20062;-70
2022/02/01 08:25:33;;;;;;;2.40;1.60;;;;;;;;;;4986277;28;20026;-71
2022/02/01 08:28:04;;;;;;;2.80;1.77;;;;;;;;;;4984857;28;20023;-71
2022/02/01 08:30:31;;;;;;;3.45;2.17;;;;;;;;;;4978197;28;20366;-70
2022/02/01 08:32:57;;;;;;;3.15;1.60;;;;;;;;;;4986196;28;20038;-69
2022/02/01 08:35:23;;;;;;;2.70;1.60;;;;;;;;;;4978040;28;20277;-69
2022/02/01 08:37:50;;;;;;;1.77;1.48;;;;;;;;;;4985053;28;20053;-71
2022/02/01 08:40:16;;;;;;;4.53;1.98;;;;;;;;;;4993072;28;20027;-70
2022/02/01 08:42:49;;;;;;;1.92;1.70;;;;;;;;;;4988299;28;20018;-70
2022/02/01 08:45:22;;;;;;;2.53;1.60;;;;;;;;;;4977215;28;20035;-69
2022/02/01 08:47:49;;;;;;;2.20;1.73;;;;;;;;;;4986334;28;20126;-69
2022/02/01 08:50:17;;;;;;;1.70;1.60;;;;;;;;;;4980077;28;20058;-71
2022/02/01 08:52:47;;;;;;;1.98;1.42;;;;;;;;;;4984661;28;20539;-70
2022/02/01 08:57:21;;;;;;;2.20;1.60;;;;;;;;;;4978385;28;20602;-70
2022/02/01 08:58:08;;;;;;;4.10;1.60;;;;;;;;;;4983023;28;20037;-70
2022/02/01 09:00:35;;;;;;;2.53;1.70;;;;;;;;;;4979365;28;20477;-69
2022/02/01 09:03:04;;;;;;;1.60;1.50;;;;;;;;;;4982856;28;20018;-71
2022/02/01 09:05:30;;;;;;;2.65;1.90;;;;;;;;;;4990742;28;20041;-69
2022/02/01 09:08:03;;;;;;;3.45;1.50;;;;;;;;;;4982771;28;20030;-70
2022/02/01 09:10:32;;;;;;;6.13;2.42;;;;;;;;;;4989768;28;20057;-70
2022/02/01 09:12:59;;;;;;;2.55;1.70;;;;;;;;;;4995424;28;20054;-70
2022/02/01 09:15:28;;;;;;;3.83;1.75;;;;;;;;;;4977025;28;20030;-69
2022/02/01 09:17:55;;;;;;;2.42;1.70;;;;;;;;;;4985556;28;20030;-70
2022/02/01 09:20:21;;;;;;;2.15;1.55;;;;;;;;;;4983785;28;20432;-70
2022/02/01 09:22:47;;;;;;;1.50;1.40;;;;;;;;;;4990302;28;21473;-69
2022/02/01 09:25:17;;;;;;;3.25;1.40;;;;;;;;;;4982990;28;20073;-71
2022/02/01 09:27:43;;;;;;;1.88;1.50;;;;;;;;;;4990600;28;20105;-72
2022/02/01 09:30:09;;;;;;;3.05;1.60;;;;;;;;;;4984434;28;20097;-70
2022/02/01 09:32:35;;;;;;;2.75;1.52;;;;;;;;;;4985037;28;20034;-71
2022/02/01 09:35:01;;;;;;;1.75;1.65;;;;;;;;;;4983978;28;20117;-71
2022/02/01 09:37:28;;;;;;;1.70;1.50;;;;;;;;;;4980358;28;20031;-70
2022/02/01 09:39:54;;;;;;;3.50;1.70;;;;;;;;;;4987435;28;20037;-70
2022/02/01 09:42:24;;;;;;;1.73;1.45;;;;;;;;;;4989105;28;20030;-71
2022/02/01 09:44:52;;;;;;;2.38;1.60;;;;;;;;;;4981374;28;20022;-70
2022/02/01 09:47:18;;;;;;;2.40;1.50;;;;;;;;;;4985045;28;20425;-70
2022/02/01 09:49:46;;;;;;;3.53;1.63;;;;;;;;;;4982361;28;20113;-69
2022/02/01 09:52:12;;;;;;;1.77;1.60;;;;;;;;;;4985755;28;20517;-71
2022/02/01 09:54:39;;;;;;;1.80;1.50;;;;;;;;;;4988563;28;20424;-71
2022/02/01 09:57:08;;;;;;;1.63;1.52;;;;;;;;;;4984862;28;20557;-70
2022/02/01 09:59:35;;;;;;;1.70;1.60;;;;;;;;;;4982399;28;20026;-69
2022/02/01 10:02:20;;;;;;;2.75;1.50;;;;;;;;;;4986740;28;20033;-70
2022/02/01 10:04:50;;;;;;;1.63;1.52;;;;;;;;;;4980089;28;20489;-70
2022/02/01 10:07:16;;;;;;;1.75;1.60;;;;;;;;;;4992425;28;20065;-71
2022/02/01 10:09:52;;;;;;;2.30;1.60;;;;;;;;;;4986048;28;20054;-71
2022/02/01 10:12:18;;;;;;;4.65;1.80;;;;;;;;;;4991603;28;20567;-71
2022/02/01 10:14:54;;;;;;;1.70;1.60;;;;;;;;;;4982595;28;20033;-68
2022/02/01 10:17:28;;;;;;;1.40;1.30;;;;;;;;;;4986322;28;20033;-70
2022/02/01 10:19:55;;;;;;;1.73;1.60;;;;;;;;;;4987006;28;20030;-71
2022/02/01 10:22:31;;;;;;;2.17;1.90;;;;;;;;;;4987750;28;20110;-69
2022/02/01 10:24:57;;;;;;;2.63;1.60;;;;;;;;;;4984758;28;20729;-70
2022/02/01 10:27:25;;;;;;;2.67;2.10;;;;;;;;;;4986617;28;20118;-72
2022/02/01 10:30:06;;;;;;;1.48;1.38;;;;;;;;;;4987015;28;20236;-70
2022/02/01 10:32:49;;;;;;;2.00;1.75;;;;;;;;;;4981044;28;20587;-71
2022/02/01 10:37:56;;;;;;;3.33;2.60;;;;;;;;;;4982682;28;20535;-70
2022/02/01 10:40:22;;;;;;;4.80;2.70;;;;;;;;;;4988196;28;20030;-70
2022/02/01 10:42:55;;;;;;;3.05;2.17;;;;;;;;;;4982164;28;20050;-70
2022/02/01 10:45:21;;;;;;;3.53;2.45;;;;;;;;;;4986583;28;20073;-71
2022/02/01 10:47:47;;;;;;;4.97;2.10;;;;;;;;;;4981434;28;20125;-68
2022/02/01 10:50:15;;;;;;;4.20;2.30;;;;;;;;;;4984291;28;20048;-70
2022/02/01 10:52:44;;;;;;;5.07;2.55;;;;;;;;;;4983218;28;20030;-70
2022/02/01 10:55:10;;;;;;;4.63;1.98;;;;;;;;;;4983170;28;20033;-70
2022/02/01 10:57:37;;;;;;;3.25;2.03;;;;;;;;;;4985474;28;20057;-69
2022/02/01 11:00:07;;;;;;;2.58;2.15;;;;;;;;;;4987849;28;20105;-71
2022/02/01 11:02:33;;;;;;;3.22;2.47;;;;;;;;;;4982020;28;20093;-70
2022/02/01 11:05:00;;;;;;;2.80;2.10;;;;;;;;;;4988212;28;20029;-71
2022/02/01 11:07:26;;;;;;;2.88;1.77;;;;;;;;;;4983848;28;20034;-70
2022/02/01 11:09:52;;;;;;;2.28;1.70;;;;;;;;;;4979801;28;20062;-70
2022/02/01 11:12:18;;;;;;;3.25;1.67;;;;;;;;;;4981767;28;20031;-71
2022/02/01 11:14:46;;;;;;;4.03;1.58;;;;;;;;;;4991222;28;20023;-69
2022/02/01 11:17:14;;;;;;;1.70;1.60;;;;;;;;;;4999381;28;20037;-68
2022/02/01 11:19:51;;;;;;;3.28;1.60;;;;;;;;;;4982475;28;20022;-71
2022/02/01 11:22:24;;;;;;;1.98;1.75;;;;;;;;;;4987410;28;20117;-69
2022/02/01 11:24:55;;;;;;;2.63;1.88;;;;;;;;;;4989702;28;20065;-72
2022/02/01 11:27:32;;;;;;;2.35;1.55;;;;;;;;;;4994801;28;20042;-71
2022/02/01 11:30:11;;;;;;;1.60;1.50;;;;;;;;;;4993490;28;20045;-71
2022/02/01 11:32:39;;;;;;;1.90;1.80;;;;;;;;;;4984823;28;20054;-71
2022/02/01 11:35:09;;;;;;;2.45;2.25;;;;;;;;;;4986175;28;20039;-71
2022/02/01 11:37:45;;;;;;;3.22;2.00;;;;;;;;;;4986445;28;20037;-71
2022/02/01 11:40:13;;;;;;;3.03;2.42;;;;;;;;;;4987212;28;20511;-72
2022/02/01 11:42:41;;;;;;;2.97;2.30;;;;;;;;;;4983911;28;20434;-69
2022/02/01 11:45:08;;;;;;;2.28;1.73;;;;;;;;;;4987912;28;20022;-70
2022/02/01 11:47:38;;;;;;;1.80;1.60;;;;;;;;;;4985714;28;20041;-71
2022/02/01 11:50:14;;;;;;;2.78;1.60;;;;;;;;;;4987927;28;20517;-71
2022/02/01 11:52:48;;;;;;;2.70;1.70;;;;;;;;;;4994447;28;20069;-71
2022/02/01 11:55:15;;;;;;;1.88;1.42;;;;;;;;;;4991117;28;20493;-70
2022/02/01 11:57:45;;;;;;;2.78;1.50;;;;;;;;;;4990143;28;20385;-71
2022/02/01 12:00:11;;;;;;;3.38;1.92;;;;;;;;;;4979969;28;20034;-71
2022/02/01 12:02:40;;;;;;;3.78;2.47;;;;;;;;;;5000914;28;20042;-71
2022/02/01 12:05:06;;;;;;;2.85;1.92;;;;;;;;;;4981539;28;20040;-71
2022/02/01 12:07:42;;;;;;;2.40;1.73;;;;;;;;;;4981025;28;20034;-70
2022/02/01 12:10:16;;;;;;;2.05;1.83;;;;;;;;;;4986544;28;20755;-69
2022/02/01 12:12:42;;;;;;;4.55;1.98;;;;;;;;;;4988221;28;20023;-71
2022/02/01 12:15:09;;;;;;;2.50;1.95;;;;;;;;;;4990973;28;20083;-68
2022/02/01 12:17:37;;;;;;;3.47;1.90;;;;;;;;;;4992480;28;20022;-70
2022/02/01 12:20:05;;;;;;;1.90;1.70;;;;;;;;;;4985936;28;20046;-71
2022/02/01 12:22:38;;;;;;;2.85;2.00;;;;;;;;;;4985181;28;20484;-70
2022/02/01 12:25:05;;;;;;;2.30;1.80;;;;;;;;;;4995748;28;20042;-69
2022/02/01 12:27:38;;;;;;;5.30;2.50;;;;;;;;;;4981405;28;20547;-71
2022/02/01 12:30:05;;;;;;;3.42;2.40;;;;;;;;;;4994517;28;20484;-70
2022/02/01 12:32:33;;;;;;;1.80;1.60;;;;;;;;;;4979815;28;20173;-71
2022/02/01 12:34:59;;;;;;;1.80;1.63;;;;;;;;;;4986607;28;20031;-69
2022/02/01 12:37:25;;;;;;;1.50;1.40;;;;;;;;;;4982856;28;20481;-71
2022/02/01 12:40:01;;;;;;;2.97;2.28;;;;;;;;;;4984630;28;20401;-70
2022/02/01 12:42:37;;;;;;;2.13;1.65;;;;;;;;;;4983415;28;20030;-71
2022/02/01 12:47:49;;;;;;;3.05;1.77;;;;;;;;;;4980832;28;20061;-70
2022/02/01 12:50:15;;;;;;;1.63;1.52;;;;;;;;;;4985320;28;20148;-70
2022/02/01 12:52:41;;;;;;;1.60;1.40;;;;;;;;;;4982273;28;20061;-71
2022/02/01 12:55:09;;;;;;;2.50;1.80;;;;;;;;;;4987085;28;20626;-70
2022/02/01 12:57:36;;;;;;;2.80;1.70;;;;;;;;;;4989813;28;20527;-71
2022/02/01 13:00:19;;;;;;;3.35;2.05;;;;;;;;;;4985239;28;20046;-72
2022/02/01 13:02:54;;;;;;;3.30;2.10;;;;;;;;;;4985316;28;20042;-68
2022/02/01 13:05:21;;;;;;;3.20;2.10;;;;;;;;;;4995337;28;20026;-70
2022/02/01 13:08:10;;;;;;;2.42;2.10;;;;;;;;;;4977474;28;20061;-69
2022/02/01 13:21:01;;;;;;;2.45;1.90;;;;;;;;;;4981484;28;20785;-69
2022/02/01 13:23:43;;;;;;;2.85;2.00;;;;;;;;;;4989519;28;20037;-72
2022/02/01 13:26:10;;;;;;;2.05;1.70;;;;;;;;;;4997438;28;20057;-70
2022/02/01 13:28:36;;;;;;;1.50;1.40;;;;;;;;;;4982544;28;20122;-69
2022/02/01 13:31:11;;;;;;;2.65;1.70;;;;;;;;;;4995036;28;20061;-70
2022/02/01 13:33:37;;;;;;;;;;;;;;;;;;4982225;28;20043;-70
2022/02/01 13:36:03;;;;;;;;;;;;;;;;;;4976518;28;20484;-68
2022/02/01 13:38:29;;;;;;;;;;;;;;;;;;4984594;28;20368;-70
2022/02/01 13:40:56;;;;;;;1.50;1.40;;;;;;;;;;4994665;28;19920;-70
2022/02/01 13:43:26;;;;;;;3.30;1.40;;;;;;;;;;4977684;28;20034;-69
2022/02/01 13:45:54;;;;;;;1.73;1.40;;;;;;;;;;4986089;28;20037;-70
2022/02/01 13:48:24;;;;;;;2.35;1.50;;;;;;;;;;4982497;28;20474;-71
2022/02/01 13:50:51;;;;;;;1.33;1.23;;;;;;;;;;4998564;28;20030;-71
2022/02/01 13:53:18;;;;;;;1.92;1.73;;;;;;;;;;4984533;28;20037;-71
2022/02/01 13:55:44;;;;;;;2.47;1.95;;;;;;;;;;4986491;28;20508;-71
2022/02/01 13:58:13;;;;;;;2.58;1.80;;;;;;;;;;4986492;28;20014;-70
2022/02/01 14:00:49;;;;;;;1.98;1.63;;;;;;;;;;4985808;28;20049;-71
2022/02/01 14:05:57;;;;;;;2.65;1.90;;;;;;;;;;4982481;28;20045;-71
2022/02/01 14:08:32;;;;;;;2.03;1.85;;;;;;;;;;4986298;28;20493;-71
2022/02/01 14:11:30;;;;;;;2.60;2.07;;;;;;;;;;4985651;28;20058;-70
2022/02/01 14:27:13;;;;;;;1.50;1.40;;;;;;;;;;4990587;28;20141;-68
2022/02/01 14:34:43;;;;;;;1.60;1.50;;;;;;;;;;4985854;28;20042;-71
2022/02/01 14:37:40;;;;;;;1.85;1.75;;;;;;;;;;4990140;28;20023;-71
2022/02/01 14:45:09;;;;;;;1.25;1.20;;;;;;;;;;4990035;28;20397;-70
2022/02/01 14:47:35;;;;;;;1.58;1.38;;;;;;;;;;4985185;28;20043;-69
2022/02/01 14:50:03;;;;;;;1.88;1.40;;;;;;;;;;4986918;28;20034;-70
2022/02/01 14:52:29;;;;;;;1.75;1.65;;;;;;;;;;4985002;28;20440;-70
2022/02/01 14:55:00;;;;;;;2.17;1.60;;;;;;;;;;4987009;28;20026;-70
2022/02/01 15:13:24;;;;;;;1.70;1.60;;;;;;;;;;4981217;28;20400;-69
2022/02/01 15:15:50;;;;;;;1.83;1.65;;;;;;;;;;4983459;28;20034;-70
2022/02/01 15:18:16;;;;;;;3.60;1.75;;;;;;;;;;4994268;28;20476;-70
2022/02/01 15:20:42;;;;;;;1.83;1.52;;;;;;;;;;4983402;28;20392;-71
2022/02/01 15:23:09;;;;;;;1.90;1.80;;;;;;;;;;4981416;28;20026;-71
2022/02/01 15:25:35;;;;;;;3.75;2.13;;;;;;;;;;4984370;28;20030;-69
2022/02/01 15:28:01;;;;;;;5.47;3.95;;;;;;;;;;4981106;28;20041;-71
2022/02/01 15:30:28;;;;;;;4.32;3.88;;;;;;;;;;4988157;28;20081;-71
2022/02/01 15:32:54;;;;;;;5.80;3.35;;;;;;;;;;4985197;28;20085;-71
2022/02/01 15:35:20;;;;;;;4.82;3.40;;;;;;;;;;4990054;28;20057;-70
2022/02/01 15:37:51;;;;;;;5.18;3.72;;;;;;;;;;4990164;28;20056;-71
2022/02/01 15:59:17;;;;;;;7.70;5.65;;;;;;;;;;4987860;28;20029;-71
2022/02/01 16:01:56;;;;;;;3.88;2.72;;;;;;;;;;4984339;28;20037;-71
2022/02/01 16:04:22;;;;;;;2.45;1.92;;;;;;;;;;4985136;28;20548;-71
2022/02/01 16:07:02;;;;;;;3.65;1.90;;;;;;;;;;4984312;28;20036;-71
2022/02/01 16:11:56;;;;;;;6.47;2.78;;;;;;;;;;4981377;28;20041;-68
2022/02/01 16:14:22;;;;;;;3.83;2.72;;;;;;;;;;4986799;28;20030;-69
2022/02/01 16:16:48;;;;;;;2.92;2.40;;;;;;;;;;4981622;28;20026;-71
2022/02/01 16:19:15;;;;;;;2.15;1.92;;;;;;;;;;4986747;28;20489;-71
2022/02/01 16:21:42;;;;;;;2.33;1.80;;;;;;;;;;4980609;28;20022;-69
2022/02/01 16:24:09;;;;;;;3.03;1.63;;;;;;;;;;4984087;28;20022;-71
2022/02/01 16:26:35;;;;;;;7.60;5.10;;;;;;;;;;4986996;28;20527;-71
2022/02/01 16:29:01;;;;;;;9.63;7.20;;;;;;;;;;4992734;28;20492;-71
2022/02/01 16:31:29;;;;;;;20.40;14.05;;;;;;;;;;4987631;28;20026;-71
2022/02/01 16:33:56;;;;;;;8.73;6.75;;;;;;;;;;4991044;28;20037;-69
2022/02/01 16:36:23;;;;;;;5.78;4.78;;;;;;;;;;4989762;28;20023;-70
2022/02/01 16:38:50;;;;;;;6.05;5.43;;;;;;;;;;4987161;28;20030;-72
2022/02/01 16:41:17;;;;;;;3.85;3.45;;;;;;;;;;4983665;28;20073;-70
2022/02/01 16:43:43;;;;;;;3.05;2.55;;;;;;;;;;4982972;28;20031;-70
2022/02/01 16:46:09;;;;;;;17.23;11.15;;;;;;;;;;4991992;28;20106;-70
2022/02/01 16:48:36;;;;;;;28.63;18.98;;;;;;;;;;4979971;28;20050;-70
2022/02/01 16:51:03;;;;;;;34.97;25.30;;;;;;;;;;4983391;28;20523;-71
2022/02/01 16:53:45;;;;;;;27.98;21.17;;;;;;;;;;4990421;28;20499;-71
2022/02/01 16:56:27;;;;;;;8.65;5.88;;;;;;;;;;4984907;28;20085;-70
2022/02/01 16:58:55;;;;;;;11.13;9.23;;;;;;;;;;4982293;28;20138;-71
2022/02/01 17:01:22;;;;;;;15.20;13.60;;;;;;;;;;4987381;28;20030;-70
2022/02/01 17:03:48;;;;;;;14.02;11.45;;;;;;;;;;4986083;28;20496;-70
2022/02/01 17:06:15;;;;;;;7.07;6.18;;;;;;;;;;4985141;28;20423;-71
2022/02/01 17:08:43;;;;;;;10.77;8.75;;;;;;;;;;4980395;28;20139;-69
2022/02/01 17:11:25;;;;;;;16.35;9.05;;;;;;;;;;4984098;28;20144;-70
2022/02/01 17:14:03;;;;;;;12.82;11.25;;;;;;;;;;4982527;28;20026;-69
2022/02/01 17:19:17;;;;;;;10.10;5.90;;;;;;;;;;4986288;28;20026;-71
2022/02/01 17:21:43;;;;;;;15.80;10.52;;;;;;;;;;4976842;28;20129;-71
2022/02/01 17:24:17;;;;;;;7.55;6.07;;;;;;;;;;4981258;28;20030;-67
2022/02/01 17:26:43;;;;;;;5.15;4.65;;;;;;;;;;4981726;28;20397;-70
2022/02/01 17:29:09;;;;;;;14.35;13.00;;;;;;;;;;4977985;28;20041;-68
2022/02/01 17:31:36;;;;;;;25.67;21.60;;;;;;;;;;4981422;28;20026;-68
2022/02/01 17:34:02;;;;;;;14.68;13.15;;;;;;;;;;4994677;28;20060;-69
2022/02/01 17:36:28;;;;;;;7.97;7.22;;;;;;;;;;4982351;28;20060;-68
2022/02/01 17:38:58;;;;;;;8.65;6.25;;;;;;;;;;4985317;28;20109;-69
2022/02/01 17:41:25;;;;;;;3.63;3.33;;;;;;;;;;4982887;28;20030;-70